Silver Soul — HP3446 — position and weather

sailwx.info

Track history (hours):
 
Tides and Currents Weather Stations Pressure Air Temp Water Temp Dewpoint Dewpoint Depression Visibility Wind Speed Wind Dir Waves Ship Positions

Silver Soul

Last reported at 2018-Jan-18 05:54 UTC. Time now 2018-Jan-18 10:23 UTC.
Position N 39°38' W 000°13'.

Length 184 m; draft 7.4 m.

Type: Cargo ship. MMSI: 351852000.

Date/timePositionNaut miles runAvg speedWind from/ knotsBaromVisibWave heightAir tempDewpointWater temp
2018-Jan-18 05:54N 39°38' W 000°13'3 5.1
2018-Jan-18 05:22N 39°36' W 000°10'2 4.9
2018-Jan-18 05:00N 39°37' W 000°08'0 0.0
2018-Jan-18 03:47N 39°37' W 000°08'0 0.1
2018-Jan-18 03:26N 39°37' W 000°08'0 0.0
2018-Jan-18 02:35N 39°37' W 000°08'0 0.0
2018-Jan-18 02:29N 39°37' W 000°08'0 0.0
2018-Jan-18 01:59N 39°37' W 000°08'0 0.0
2018-Jan-18 00:26N 39°37' W 000°08'0 0.0
2018-Jan-17 23:59N 39°37' W 000°08'0 0.1
2018-Jan-17 23:56N 39°37' W 000°08'  
2018-Jan-12 14:55N 37°39' E 015°57'1 1.3
2018-Jan-12 14:30N 37°39' E 015°57'1 1.2
2018-Jan-12 13:54N 37°38' E 015°57'0 1.2
2018-Jan-12 13:30N 37°37' E 015°56'1 1.3
2018-Jan-12 12:42N 37°36' E 015°56'4 1.4
2018-Jan-12 09:37N 37°32' E 015°54'1 1.7
2018-Jan-12 09:19N 37°32' E 015°54'1 1.9
2018-Jan-12 08:51N 37°31' E 015°53'1 1.6
2018-Jan-12 08:30N 37°31' E 015°53'1 1.3
2018-Jan-12 07:30N 37°29' E 015°53'1 1.3
2018-Jan-12 07:00N 37°29' E 015°52'1 1.4
2018-Jan-12 06:20N 37°28' E 015°52'0 1.4
2018-Jan-12 05:59N 37°27' E 015°52'1 1.5
2018-Jan-12 05:29N 37°27' E 015°51'1 1.5
2018-Jan-12 04:49N 37°26' E 015°51'1 1.5
2018-Jan-12 04:09N 37°25' E 015°50'1 1.6
2018-Jan-12 03:49N 37°25' E 015°50'2 1.7
2018-Jan-12 02:37N 37°23' E 015°48'2 1.8
2018-Jan-12 01:18N 37°21' E 015°47'1 1.9
2018-Jan-12 00:55N 37°20' E 015°47'1 1.8
2018-Jan-12 00:28N 37°19' E 015°46'1 2.1
2018-Jan-11 23:50N 37°18' E 015°46'1 2.1
2018-Jan-11 23:28N 37°17' E 015°46'1 2.1
2018-Jan-11 23:00N 37°16' E 015°45'1 2.1
2018-Jan-11 22:30N 37°15' E 015°45'1 2.2
2018-Jan-11 22:00N 37°14' E 015°44'13 1.0
2018-Jan-11 09:24N 37°16' E 016°00'1513.3
2018-Jan-11 08:16N 37°28' E 016°12'413.5
2018-Jan-11 07:56N 37°31' E 016°16'4613.7
2018-Jan-11 04:35N 38°07' E 016°52'413.8
2018-Jan-11 04:20N 38°10' E 016°55'40310.4
2018-Jan-09 13:32N 44°27' E 013°43'011.9
2018-Jan-09 13:30N 44°27' E 013°43'612.0
2018-Jan-09 13:00N 44°32' E 013°39'612.1
2018-Jan-09 12:30N 44°37' E 013°34'612.1
2018-Jan-09 12:00N 44°42' E 013°29'612.2
2018-Jan-09 11:31N 44°47' E 013°25'612.9
2018-Jan-09 11:01N 44°53' E 013°20'713.2
2018-Jan-09 10:30N 44°58' E 013°14'713.4
2018-Jan-09 10:00N 45°04' E 013°09'713.4
2018-Jan-09 09:31N 45°09' E 013°04'713.4
2018-Jan-09 09:01N 45°16' E 013°02'612.5
2018-Jan-09 08:31N 45°22' E 013°02'713.5
2018-Jan-09 08:01N 45°27' E 013°09'713.4
2018-Jan-09 07:31N 45°31' E 013°16'713.6
2018-Jan-09 07:00N 45°35' E 013°24'713.9
2018-Jan-09 06:30N 45°38' E 013°33'511.0
2018-Jan-09 06:00N 45°35' E 013°40'3 6.2
2018-Jan-09 05:30N 45°33' E 013°43'1 1.1
2018-Jan-09 05:00N 45°33' E 013°44'0 0.0
2018-Jan-09 04:30N 45°33' E 013°44'0 0.0
2018-Jan-09 04:00N 45°33' E 013°44'0 0.0
2018-Jan-09 03:30N 45°33' E 013°44'0 0.0
2018-Jan-09 03:00N 45°33' E 013°44'0 0.0
2018-Jan-09 02:30N 45°33' E 013°44'0 0.0
2018-Jan-09 02:00N 45°33' E 013°44'0 0.0
2018-Jan-09 01:30N 45°33' E 013°44'0 0.0
2018-Jan-09 00:53N 45°33' E 013°44'0 0.0
2018-Jan-09 00:29N 45°33' E 013°44'0 0.0
2018-Jan-08 23:59N 45°33' E 013°44'0 0.0
2018-Jan-08 23:29N 45°33' E 013°44'0 0.0
2018-Jan-08 22:59N 45°33' E 013°44'0 0.0
2018-Jan-08 22:29N 45°33' E 013°44'0 0.0
2018-Jan-08 21:59N 45°33' E 013°44'0 0.0
2018-Jan-08 21:26N 45°33' E 013°44'0 0.0
2018-Jan-08 20:59N 45°33' E 013°44'0 0.0
2018-Jan-08 20:26N 45°33' E 013°44'0 0.0
2018-Jan-08 19:56N 45°33' E 013°44'0 0.0
2018-Jan-08 19:26N 45°33' E 013°44'0 0.0
2018-Jan-08 18:59N 45°33' E 013°44'0 0.0
2018-Jan-08 18:29N 45°33' E 013°44'0 0.0
2018-Jan-08 17:59N 45°33' E 013°44'0 0.0
2018-Jan-08 17:29N 45°33' E 013°44'0 0.0
2018-Jan-08 16:59N 45°33' E 013°44'0 0.0
2018-Jan-08 16:29N 45°33' E 013°44'0 0.0
2018-Jan-08 15:59N 45°33' E 013°44'0 0.0
2018-Jan-08 15:29N 45°33' E 013°44'0 0.0
2018-Jan-08 14:59N 45°33' E 013°44'0 0.0
2018-Jan-08 14:29N 45°33' E 013°44'0 0.0
2018-Jan-08 13:56N 45°33' E 013°44'0 0.0
2018-Jan-08 13:14N 45°33' E 013°44'0 0.0
2018-Jan-08 12:59N 45°33' E 013°44'0 0.0
2018-Jan-08 12:29N 45°33' E 013°44'0 0.0
2018-Jan-08 11:59N 45°33' E 013°44'0 0.0
2018-Jan-08 11:29N 45°33' E 013°44'0 0.0
2018-Jan-08 10:59N 45°33' E 013°44'0 0.0
2018-Jan-08 10:29N 45°33' E 013°44'0 0.0
2018-Jan-08 09:59N 45°33' E 013°44'0 0.0
2018-Jan-08 09:29N 45°33' E 013°44'0 0.0
2018-Jan-08 08:59N 45°33' E 013°44'0 0.0
2018-Jan-08 08:29N 45°33' E 013°44'0 0.0
2018-Jan-08 07:59N 45°33' E 013°44'0 0.0
2018-Jan-08 07:26N 45°33' E 013°44'0 0.0
2018-Jan-08 06:59N 45°33' E 013°44'0 0.0
2018-Jan-08 06:29N 45°33' E 013°44'0 0.0
2018-Jan-08 05:59N 45°33' E 013°44'  
Track history (hours):
 
Tides and Currents Weather Stations Pressure Air Temp Water Temp Dewpoint Dewpoint Depression Visibility Wind Speed Wind Dir Waves Ship Positions

Silver Soul

Last reported at 2018-Jan-18 05:54 UTC. Time now 2018-Jan-18 10:24 UTC.
Position N 39°38' W 000°13'.

Length 184 m; draft 7.4 m.

Type: Cargo ship. MMSI: 351852000.

Date/timePositionNaut miles runAvg speedWind from/ knotsBaromVisibWave heightAir tempDewpointWater temp
2018-Jan-18 05:54N 39°38' W 000°13'3 5.1
2018-Jan-18 05:22N 39°36' W 000°10'2 4.9
2018-Jan-18 05:00N 39°37' W 000°08'0 0.0
2018-Jan-18 03:47N 39°37' W 000°08'0 0.1
2018-Jan-18 03:26N 39°37' W 000°08'0 0.0
2018-Jan-18 02:35N 39°37' W 000°08'0 0.0
2018-Jan-18 02:29N 39°37' W 000°08'0 0.0
2018-Jan-18 01:59N 39°37' W 000°08'0 0.0
2018-Jan-18 00:26N 39°37' W 000°08'0 0.0
2018-Jan-17 23:59N 39°37' W 000°08'0 0.1
2018-Jan-17 23:56N 39°37' W 000°08'  
2018-Jan-12 14:55N 37°39' E 015°57'1 1.3
2018-Jan-12 14:30N 37°39' E 015°57'1 1.2
2018-Jan-12 13:54N 37°38' E 015°57'0 1.2
2018-Jan-12 13:30N 37°37' E 015°56'1 1.3
2018-Jan-12 12:42N 37°36' E 015°56'4 1.4
2018-Jan-12 09:37N 37°32' E 015°54'1 1.7
2018-Jan-12 09:19N 37°32' E 015°54'1 1.9
2018-Jan-12 08:51N 37°31' E 015°53'1 1.6
2018-Jan-12 08:30N 37°31' E 015°53'1 1.3
2018-Jan-12 07:30N 37°29' E 015°53'1 1.3
2018-Jan-12 07:00N 37°29' E 015°52'1 1.4
2018-Jan-12 06:20N 37°28' E 015°52'0 1.4
2018-Jan-12 05:59N 37°27' E 015°52'1 1.5
2018-Jan-12 05:29N 37°27' E 015°51'1 1.5
2018-Jan-12 04:49N 37°26' E 015°51'1 1.5
2018-Jan-12 04:09N 37°25' E 015°50'1 1.6
2018-Jan-12 03:49N 37°25' E 015°50'2 1.7
2018-Jan-12 02:37N 37°23' E 015°48'2 1.8
2018-Jan-12 01:18N 37°21' E 015°47'1 1.9
2018-Jan-12 00:55N 37°20' E 015°47'1 1.8
2018-Jan-12 00:28N 37°19' E 015°46'1 2.1
2018-Jan-11 23:50N 37°18' E 015°46'1 2.1
2018-Jan-11 23:28N 37°17' E 015°46'1 2.1
2018-Jan-11 23:00N 37°16' E 015°45'1 2.1
2018-Jan-11 22:30N 37°15' E 015°45'1 2.2
2018-Jan-11 22:00N 37°14' E 015°44'13 1.0
2018-Jan-11 09:24N 37°16' E 016°00'1513.3
2018-Jan-11 08:16N 37°28' E 016°12'413.5
2018-Jan-11 07:56N 37°31' E 016°16'4613.7
2018-Jan-11 04:35N 38°07' E 016°52'413.8
2018-Jan-11 04:20N 38°10' E 016°55'40310.4
2018-Jan-09 13:32N 44°27' E 013°43'011.9
2018-Jan-09 13:30N 44°27' E 013°43'612.0
2018-Jan-09 13:00N 44°32' E 013°39'612.1
2018-Jan-09 12:30N 44°37' E 013°34'612.1
2018-Jan-09 12:00N 44°42' E 013°29'612.2
2018-Jan-09 11:31N 44°47' E 013°25'612.9
2018-Jan-09 11:01N 44°53' E 013°20'713.2
2018-Jan-09 10:30N 44°58' E 013°14'713.4
2018-Jan-09 10:00N 45°04' E 013°09'713.4
2018-Jan-09 09:31N 45°09' E 013°04'713.4
2018-Jan-09 09:01N 45°16' E 013°02'612.5
2018-Jan-09 08:31N 45°22' E 013°02'713.5
2018-Jan-09 08:01N 45°27' E 013°09'713.4
2018-Jan-09 07:31N 45°31' E 013°16'713.6
2018-Jan-09 07:00N 45°35' E 013°24'713.9
2018-Jan-09 06:30N 45°38' E 013°33'511.0
2018-Jan-09 06:00N 45°35' E 013°40'3 6.2
2018-Jan-09 05:30N 45°33' E 013°43'1 1.1
2018-Jan-09 05:00N 45°33' E 013°44'0 0.0
2018-Jan-09 04:30N 45°33' E 013°44'0 0.0
2018-Jan-09 04:00N 45°33' E 013°44'0 0.0
2018-Jan-09 03:30N 45°33' E 013°44'0 0.0
2018-Jan-09 03:00N 45°33' E 013°44'0 0.0
2018-Jan-09 02:30N 45°33' E 013°44'0 0.0
2018-Jan-09 02:00N 45°33' E 013°44'0 0.0
2018-Jan-09 01:30N 45°33' E 013°44'0 0.0
2018-Jan-09 00:53N 45°33' E 013°44'0 0.0
2018-Jan-09 00:29N 45°33' E 013°44'0 0.0
2018-Jan-08 23:59N 45°33' E 013°44'0 0.0
2018-Jan-08 23:29N 45°33' E 013°44'0 0.0
2018-Jan-08 22:59N 45°33' E 013°44'0 0.0
2018-Jan-08 22:29N 45°33' E 013°44'0 0.0
2018-Jan-08 21:59N 45°33' E 013°44'0 0.0
2018-Jan-08 21:26N 45°33' E 013°44'0 0.0
2018-Jan-08 20:59N 45°33' E 013°44'0 0.0
2018-Jan-08 20:26N 45°33' E 013°44'0 0.0
2018-Jan-08 19:56N 45°33' E 013°44'0 0.0
2018-Jan-08 19:26N 45°33' E 013°44'0 0.0
2018-Jan-08 18:59N 45°33' E 013°44'0 0.0
2018-Jan-08 18:29N 45°33' E 013°44'0 0.0
2018-Jan-08 17:59N 45°33' E 013°44'0 0.0
2018-Jan-08 17:29N 45°33' E 013°44'0 0.0
2018-Jan-08 16:59N 45°33' E 013°44'0 0.0
2018-Jan-08 16:29N 45°33' E 013°44'0 0.0
2018-Jan-08 15:59N 45°33' E 013°44'0 0.0
2018-Jan-08 15:29N 45°33' E 013°44'0 0.0
2018-Jan-08 14:59N 45°33' E 013°44'0 0.0
2018-Jan-08 14:29N 45°33' E 013°44'0 0.0
2018-Jan-08 13:56N 45°33' E 013°44'0 0.0
2018-Jan-08 13:14N 45°33' E 013°44'0 0.0
2018-Jan-08 12:59N 45°33' E 013°44'0 0.0
2018-Jan-08 12:29N 45°33' E 013°44'0 0.0
2018-Jan-08 11:59N 45°33' E 013°44'0 0.0
2018-Jan-08 11:29N 45°33' E 013°44'0 0.0
2018-Jan-08 10:59N 45°33' E 013°44'0 0.0
2018-Jan-08 10:29N 45°33' E 013°44'0 0.0
2018-Jan-08 09:59N 45°33' E 013°44'0 0.0
2018-Jan-08 09:29N 45°33' E 013°44'0 0.0
2018-Jan-08 08:59N 45°33' E 013°44'0 0.0
2018-Jan-08 08:29N 45°33' E 013°44'0 0.0
2018-Jan-08 07:59N 45°33' E 013°44'0 0.0
2018-Jan-08 07:26N 45°33' E 013°44'0 0.0
2018-Jan-08 06:59N 45°33' E 013°44'0 0.0
2018-Jan-08 06:29N 45°33' E 013°44'0 0.0
2018-Jan-08 05:59N 45°33' E 013°44'  

Dump ship's entire track history